Airfield :
LOGIN :

Register | Disclaimer

   EN    FR    IT 

 










Legend :    VFR   Marginal VFR   IFR   Intensive IFR   Very Intensive IFR
Visi :
Ceiling :
>= 8 km
>= 3000ft
5 to 8 km
1000 to 3000 ft
1500m to 5 km
500 to 1000 ft
800 to 1500m
200 to 500 ft
< 800m
< 200 ft
Symbols :   Thunderstorms  Fog  Heavy snow  Heavy precipitations  Wind > 20 kt
SIGMETs :     Misc.  Thunderstorms  Icing  Turbulence  Mountain Waves  Volcanic Ashes







- Airport Elevation : 9 ft
- IATA code : MIR


DTMB - Habib Bourguliba Int. Monastir

CURRENT METAR :
  • 301400Z 36006KT 310V050 9999 FEW020 20/09 Q1024

EXPIRED METARs :
  • 301330Z 33005KT 290V030 9999 FEW020 19/09 Q1025
  • 301300Z 32006KT 280V350 8000 NSC 20/11 Q1025 NOSIG
  • 301230Z 31008KT 8000 NSC 19/11 Q1025 NOSIG
  • 301200Z 32008KT 280V340 8000 FEW020 19/11 Q1025 NOSIG

TAF TAF DTMB
Valid from the 30 at 12:00 until the 31 at 12:00 UTC


301116Z 3012/3112 32010KT CAVOK
BECMG 3016/3018 08008KT
TEMPO 3022/3108 26004KT 6000 NSC
PROB40 3104/3107 3000 BR
BECMG 3109/3111 16010KT
No reported NOTAMs for that airfield.



MET'MAP, your aeronautical weather chart ! - Copyright ORBIFLY December 2007 - Disclaimer

ORBIFLY MET'MAP TEAM :

Programming & Development : Alexandra Zaïnal
Concept & Development : Baudouin d'Aumeries
Co-Development & Prog : Marc-Olivier Méhu
Technical & hardware support : Manuel Goepfert

Contact : metmap@orbifly.com




SOURCES & CREDITS :

   NOAA